Time;durP1;ratioP1;P1;durP2;ratioP2;P2;SDS_P1;SDS_P2;PMS_P1;PMS_P2;Temp;Humidity;BMP_temperature;BMP_pressure;BME280_temperature;BME280_humidity;BME280_pressure;Samples;Min_cycle;Max_cycle;Signal;HPM_P1;HPM_P2
2021/07/05 00:01:05;;;;;;;1999.90;999.90;;;;;;;16.45;85.01;95204.84;5129770;27;20202;-67
2021/07/05 00:03:34;;;;;;;1999.90;999.90;;;;;;;16.47;83.88;95207.91;5129355;27;20627;-68
2021/07/05 00:06:01;;;;;;;1999.90;999.90;;;;;;;16.36;84.47;95204.25;5129611;27;20685;-68
2021/07/05 00:08:28;;;;;;;1999.90;999.90;;;;;;;16.30;84.91;95203.72;5129353;27;20194;-68
2021/07/05 00:10:55;;;;;;;1999.90;999.90;;;;;;;16.21;85.23;95203.13;5129338;27;20604;-67
2021/07/05 00:13:22;;;;;;;1999.90;999.90;;;;;;;16.27;84.84;95199.16;5129576;27;20222;-68
2021/07/05 00:15:51;;;;;;;1999.90;999.90;;;;;;;16.23;85.18;95197.56;5129408;27;20202;-67
2021/07/05 00:18:18;;;;;;;1999.90;999.90;;;;;;;16.16;85.21;95198.13;5129693;27;20607;-67
2021/07/05 00:20:47;;;;;;;1999.90;999.90;;;;;;;16.21;85.07;95203.13;5129571;27;20203;-67
2021/07/05 00:23:15;;;;;;;1999.90;999.90;;;;;;;16.14;85.25;95200.31;5129485;27;20559;-67
2021/07/05 00:25:42;;;;;;;1999.90;999.90;;;;;;;16.08;86.12;95195.66;5131303;27;20206;-67
2021/07/05 00:28:10;;;;;;;1999.90;999.90;;;;;;;15.89;86.79;95183.94;5133352;27;20217;-68
2021/07/05 00:30:38;;;;;;;1999.90;999.90;;;;;;;15.91;87.33;95184.38;5132894;27;20198;-68
2021/07/05 00:33:06;;;;;;;1999.90;999.90;;;;;;;15.88;87.36;95185.06;5133163;27;20198;-69
2021/07/05 00:35:33;;;;;;;1999.90;999.90;;;;;;;15.80;87.05;95180.69;5132993;27;20251;-67
2021/07/05 00:38:02;;;;;;;1999.90;999.90;;;;;;;15.86;86.62;95173.38;5133059;27;20226;-68
2021/07/05 00:40:30;;;;;;;1999.90;999.90;;;;;;;15.77;86.89;95170.13;5132786;27;20262;-63
2021/07/05 00:42:58;;;;;;;1999.90;999.90;;;;;;;15.75;87.06;95180.16;5132758;27;20194;-68
2021/07/05 00:45:26;;;;;;;1999.90;999.90;;;;;;;15.79;86.79;95167.94;5131734;27;20202;-67
2021/07/05 00:47:54;;;;;;;1999.90;999.90;;;;;;;15.72;87.24;95168.50;5132497;27;20247;-75
2021/07/05 00:50:24;;;;;;;1999.90;999.90;;;;;;;15.68;87.32;95170.28;5132552;27;20676;-74
2021/07/05 00:52:54;;;;;;;1999.90;999.90;;;;;;;15.73;86.97;95172.66;5135140;27;20201;-73
2021/07/05 00:55:24;;;;;;;1999.90;999.90;;;;;;;15.70;87.45;95175.16;5132360;27;20715;-67
2021/07/05 00:57:51;;;;;;;1999.90;999.90;;;;;;;15.68;87.55;95187.84;5132705;27;20276;-67
2021/07/05 01:00:20;;;;;;;1999.90;999.90;;;;;;;15.72;87.90;95179.00;5132760;27;20194;-68
2021/07/05 01:02:48;;;;;;;1999.90;999.90;;;;;;;15.82;87.79;95180.38;5132267;27;20234;-68
2021/07/05 01:05:16;;;;;;;1999.90;999.90;;;;;;;15.76;87.64;95184.31;5132636;27;20607;-67
2021/07/05 01:07:45;;;;;;;1999.90;999.90;;;;;;;15.78;88.21;95182.13;5132484;27;20194;-67
2021/07/05 01:10:13;;;;;;;1999.90;999.90;;;;;;;15.81;88.25;95184.09;5131683;27;20194;-67
2021/07/05 01:12:42;;;;;;;1999.90;999.90;;;;;;;15.93;87.85;95181.44;5132324;27;20594;-67
2021/07/05 01:15:11;;;;;;;1999.90;999.90;;;;;;;15.85;87.64;95179.69;5132096;27;20206;-67
2021/07/05 01:17:38;;;;;;;1999.90;999.90;;;;;;;15.97;86.51;95186.75;5132199;27;20222;-67
2021/07/05 01:20:07;;;;;;;1999.90;999.90;;;;;;;15.76;87.41;95182.47;5132082;27;20570;-67
2021/07/05 01:22:36;;;;;;;1999.90;999.90;;;;;;;15.67;88.15;95186.31;5131972;27;20202;-69
2021/07/05 01:25:04;;;;;;;1999.90;999.90;;;;;;;15.68;87.89;95182.63;5131979;27;20197;-67
2021/07/05 01:27:31;;;;;;;1999.90;999.90;;;;;;;15.68;88.39;95182.63;5132184;27;20198;-67
2021/07/05 01:29:58;;;;;;;1999.90;999.90;;;;;;;15.65;88.36;95180.63;5131814;27;20206;-67
2021/07/05 01:32:25;;;;;;;1999.90;999.90;;;;;;;15.64;87.69;95173.91;5132014;27;20198;-67
2021/07/05 01:34:52;;;;;;;1999.90;999.90;;;;;;;15.55;88.12;95178.47;5132065;27;20198;-67
2021/07/05 01:37:19;;;;;;;1999.90;999.90;;;;;;;15.54;88.40;95175.13;5131410;27;20635;-68
2021/07/05 01:39:48;;;;;;;1999.90;999.90;;;;;;;15.52;88.42;95173.91;5131758;27;20251;-66
2021/07/05 01:42:15;;;;;;;1999.90;999.90;;;;;;;15.52;88.65;95179.16;5131780;27;20202;-69
2021/07/05 01:44:42;;;;;;;1999.90;999.90;;;;;;;15.42;88.71;95173.25;5129623;27;20206;-67
2021/07/05 01:47:09;;;;;;;1999.90;999.90;;;;;;;15.46;88.35;95173.34;5131308;27;20218;-67
2021/07/05 01:49:36;;;;;;;1999.90;999.90;;;;;;;15.39;87.96;95170.56;5127343;27;20205;-67
2021/07/05 01:52:04;;;;;;;1999.90;999.90;;;;;;;15.28;88.31;95177.34;5131250;27;20230;-67
2021/07/05 01:54:31;;;;;;;1999.90;999.90;;;;;;;15.10;89.62;95163.72;5131363;27;20220;-68
2021/07/05 01:56:59;;;;;;;1999.90;999.90;;;;;;;15.07;89.88;95167.00;5131350;27;20732;-67
2021/07/05 01:59:26;;;;;;;1999.90;999.90;;;;;;;14.99;90.63;95176.47;5130984;27;20281;-67
2021/07/05 02:01:54;;;;;;;1999.90;999.90;;;;;;;14.97;91.31;95177.91;5129306;27;20198;-67
2021/07/05 02:04:21;;;;;;;1999.90;999.90;;;;;;;14.98;91.43;95176.81;5128054;27;20253;-67
2021/07/05 02:06:48;;;;;;;1999.90;999.90;;;;;;;15.03;91.26;95168.75;5129208;27;20318;-67
2021/07/05 02:09:15;;;;;;;1999.90;999.90;;;;;;;15.04;90.74;95171.03;5130328;27;20677;-67
2021/07/05 02:11:42;;;;;;;1999.90;999.90;;;;;;;14.88;91.70;95166.81;5129868;27;20206;-67
2021/07/05 02:14:11;;;;;;;1999.90;999.90;;;;;;;14.85;92.20;95167.44;5130959;27;20686;-67
2021/07/05 02:16:38;;;;;;;1999.90;999.90;;;;;;;14.87;92.37;95170.50;5130583;27;20199;-68
2021/07/05 02:19:06;;;;;;;1999.90;999.90;;;;;;;14.88;92.21;95169.41;5130984;27;20275;-67
2021/07/05 02:21:33;;;;;;;1999.90;999.90;;;;;;;14.69;92.32;95171.81;5130509;27;20712;-67
2021/07/05 02:24:00;;;;;;;1999.90;999.90;;;;;;;14.47;94.04;95160.69;5130798;27;20231;-67
2021/07/05 02:26:28;;;;;;;1999.90;999.90;;;;;;;14.40;95.38;95162.28;5130671;27;20199;-67
2021/07/05 02:28:56;;;;;;;1999.90;999.90;;;;;;;14.33;95.93;95165.44;5130522;27;20228;-67
2021/07/05 02:31:24;;;;;;;1999.90;999.90;;;;;;;14.27;96.88;95176.41;5130284;27;20194;-68
2021/07/05 02:33:51;;;;;;;1999.90;999.90;;;;;;;14.27;97.22;95164.09;5130250;27;20195;-68
2021/07/05 02:36:19;;;;;;;1999.90;999.90;;;;;;;14.35;97.24;95160.63;5130182;27;20199;-67
2021/07/05 02:38:47;;;;;;;1999.90;999.90;;;;;;;14.37;97.09;95155.09;5117644;27;20303;-68
2021/07/05 02:41:14;;;;;;;1999.90;999.90;;;;;;;14.52;96.50;95159.69;5109471;28;20682;-69
2021/07/05 02:43:42;;;;;;;1999.90;999.90;;;;;;;14.58;96.15;95158.41;5109764;28;20256;-67
2021/07/05 02:46:09;;;;;;;1999.90;999.90;;;;;;;14.62;95.34;95165.28;5109623;28;20196;-67
2021/07/05 02:48:38;;;;;;;1999.90;999.90;;;;;;;14.65;94.84;95164.59;5115201;27;20202;-67
2021/07/05 02:51:06;;;;;;;1999.90;999.90;;;;;;;14.65;93.72;95164.59;5129987;27;20616;-67
2021/07/05 02:53:34;;;;;;;1999.90;999.90;;;;;;;14.69;93.06;95163.97;5130421;27;20202;-68
2021/07/05 02:56:01;;;;;;;1999.90;999.90;;;;;;;14.73;92.78;95167.44;5146720;27;20238;-67
2021/07/05 02:58:28;;;;;;;1999.90;999.90;;;;;;;14.77;92.57;95168.31;5150911;27;20290;-68
2021/07/05 03:00:58;;;;;;;1999.90;999.90;;;;;;;14.82;92.45;95163.63;5149570;27;20688;-67
2021/07/05 03:03:25;;;;;;;1999.90;999.90;;;;;;;14.89;91.61;95166.47;5123592;27;20234;-68
2021/07/05 03:05:54;;;;;;;1999.90;999.90;;;;;;;14.79;92.08;95163.53;5109028;27;20206;-67
2021/07/05 03:08:22;;;;;;;1999.90;999.90;;;;;;;14.88;91.26;95169.41;5127062;27;20307;-67
2021/07/05 03:10:49;;;;;;;1999.90;999.90;;;;;;;14.82;91.70;95165.47;5129712;27;20206;-68
2021/07/05 03:13:18;;;;;;;1999.90;999.90;;;;;;;14.74;92.50;95176.84;5128641;27;20451;-69
2021/07/05 03:15:46;;;;;;;1999.90;999.90;;;;;;;14.83;92.43;95185.34;5130217;27;20279;-68
2021/07/05 03:18:14;;;;;;;1999.90;999.90;;;;;;;14.89;91.63;95184.03;5128026;27;20279;-67
2021/07/05 03:20:43;;;;;;;1999.90;999.90;;;;;;;14.92;91.24;95178.13;5129918;27;20251;-66
2021/07/05 03:23:14;;;;;;;1999.90;999.90;;;;;;;14.85;91.85;95170.81;5129921;27;20266;-67
2021/07/05 03:25:41;;;;;;;1999.90;999.90;;;;;;;14.85;92.09;95178.66;5129793;27;20713;-67
2021/07/05 03:28:10;;;;;;;1999.90;999.90;;;;;;;14.87;91.73;95181.72;5128812;27;20195;-67
2021/07/05 03:30:40;;;;;;;1999.90;999.90;;;;;;;14.83;92.33;95193.19;5128152;27;20206;-66
2021/07/05 03:33:08;;;;;;;1999.90;999.90;;;;;;;14.82;92.50;95181.19;5126616;27;20255;-67
2021/07/05 03:35:37;;;;;;;1999.90;999.90;;;;;;;14.94;91.88;95179.31;5129717;27;20202;-67
2021/07/05 03:38:04;;;;;;;1999.90;999.90;;;;;;;14.99;92.15;95176.47;5129887;27;20265;-67
2021/07/05 03:40:35;;;;;;;1999.90;999.90;;;;;;;14.89;93.07;95184.03;5129843;27;20701;-67
2021/07/05 03:43:03;;;;;;;1999.90;999.90;;;;;;;14.92;93.19;95181.50;5109278;27;20663;-68
2021/07/05 03:45:33;;;;;;;1999.90;999.90;;;;;;;15.03;92.86;95180.00;5109378;28;20203;-69
2021/07/05 03:48:01;;;;;;;1999.90;999.90;;;;;;;15.15;92.64;95175.81;5109272;28;20222;-71
2021/07/05 03:50:29;;;;;;;1999.90;999.90;;;;;;;15.24;91.84;95179.09;5108833;28;20214;-62
2021/07/05 03:52:56;;;;;;;1999.90;999.90;;;;;;;15.36;91.40;95165.97;5116679;28;20205;-62
2021/07/05 03:55:25;;;;;;;1999.90;999.90;;;;;;;15.43;90.83;95168.78;5128245;27;20201;-62
2021/07/05 03:57:54;;;;;;;1999.90;999.90;;;;;;;15.45;91.17;95161.34;5126405;27;20222;-62
2021/07/05 04:00:23;;;;;;;1999.90;999.90;;;;;;;15.56;91.18;95166.91;5120134;27;20210;-63
2021/07/05 04:02:50;;;;;;;1999.90;999.90;;;;;;;15.68;90.98;95170.28;5111606;28;20242;-62
2021/07/05 04:05:18;;;;;;;1999.90;999.90;;;;;;;15.70;91.37;95175.94;5112117;28;20179;-62
2021/07/05 04:07:45;;;;;;;1999.90;999.90;;;;;;;15.72;91.55;95184.22;5121319;27;20333;-63
2021/07/05 04:10:14;;;;;;;1999.90;999.90;;;;;;;15.81;91.37;95182.22;5132700;27;20190;-62
2021/07/05 04:12:42;;;;;;;1999.90;999.90;;;;;;;16.05;90.51;95181.34;5133191;27;20195;-62
2021/07/05 04:15:12;;;;;;;1999.90;999.90;;;;;;;16.27;89.69;95174.81;5133237;27;20195;-62
2021/07/05 04:17:39;;;;;;;1999.90;999.90;;;;;;;16.57;85.66;95169.91;5133088;27;20222;-69
2021/07/05 04:20:10;;;;;;;1999.90;999.90;;;;;;;16.76;85.05;95172.66;5133381;27;20267;-70
2021/07/05 04:22:37;;;;;;;1999.90;999.90;;;;;;;17.02;82.31;95177.38;5132923;27;20186;-63
2021/07/05 04:25:05;;;;;;;1999.90;999.90;;;;;;;17.19;81.62;95182.22;5133441;27;20198;-63
2021/07/05 04:27:32;;;;;;;1999.90;999.90;;;;;;;17.35;80.58;95171.69;5132904;27;20209;-63
2021/07/05 04:30:00;;;;;;;1999.90;999.90;;;;;;;17.52;79.43;95171.31;5132989;27;20209;-64
2021/07/05 04:32:28;;;;;;;1999.90;999.90;;;;;;;17.89;78.30;95169.03;5133323;27;20194;-63
2021/07/05 04:34:56;;;;;;;1999.90;999.90;;;;;;;18.19;76.02;95162.09;5133122;27;20202;-63
2021/07/05 04:37:23;;;;;;;1999.90;999.90;;;;;;;18.65;74.38;95167.38;5132672;27;20195;-63
2021/07/05 04:39:51;;;;;;;1999.90;999.90;;;;;;;19.16;73.57;95165.91;5132849;27;20226;-63
2021/07/05 04:42:18;;;;;;;1999.90;999.90;;;;;;;19.80;72.05;95171.25;5132733;27;20191;-63
2021/07/05 04:44:46;;;;;;;1999.90;999.90;;;;;;;20.36;67.81;95177.16;5133058;27;20206;-64
2021/07/05 04:47:13;;;;;;;1999.90;999.90;;;;;;;20.77;64.80;95177.16;5132910;27;20209;-64
2021/07/05 04:49:42;;;;;;;1999.90;999.90;;;;;;;20.77;66.97;95169.22;5135313;27;20198;-64
2021/07/05 04:52:09;;;;;;;1999.90;999.90;;;;;;;20.38;68.70;95168.88;5132789;27;20666;-66
2021/07/05 04:54:36;;;;;;;1999.90;999.90;;;;;;;20.35;66.66;95166.97;5132796;27;20738;-63
2021/07/05 04:57:04;;;;;;;1999.90;999.90;;;;;;;20.08;67.29;95166.28;5132823;27;20206;-63
2021/07/05 04:59:32;;;;;;;1999.90;999.90;;;;;;;19.89;68.42;95169.09;5132741;27;20222;-63
2021/07/05 05:01:59;;;;;;;1999.90;999.90;;;;;;;19.73;71.11;95172.69;5132178;27;20567;-64
2021/07/05 05:04:26;;;;;;;1999.90;999.90;;;;;;;20.01;68.90;95171.50;5132154;27;20222;-63
2021/07/05 05:06:54;;;;;;;1999.90;999.90;;;;;;;20.33;66.90;95167.31;5132138;27;20746;-63
2021/07/05 05:09:23;;;;;;;1999.90;999.90;;;;;;;20.57;68.59;95174.69;5132686;27;20618;-64
2021/07/05 05:11:51;;;;;;;1999.90;999.90;;;;;;;20.82;64.58;95171.53;5130967;27;20294;-64
2021/07/05 05:14:18;;;;;;;1999.90;999.90;;;;;;;21.14;63.97;95169.88;5132644;27;20203;-65
2021/07/05 05:16:46;;;;;;;1999.90;999.90;;;;;;;21.46;65.36;95162.13;5132374;27;20962;-64
2021/07/05 05:19:13;;;;;;;1999.90;999.90;;;;;;;21.54;60.92;95160.28;5132215;27;20222;-65
2021/07/05 05:21:40;;;;;;;1999.90;999.90;;;;;;;21.26;63.97;95169.59;5132272;27;20221;-64
2021/07/05 05:24:09;;;;;;;1999.90;999.90;;;;;;;21.30;61.82;95173.00;5131908;27;20195;-63
2021/07/05 05:26:36;;;;;;;1999.90;999.90;;;;;;;20.94;64.23;95173.84;5132234;27;20201;-64
2021/07/05 05:29:03;;;;;;;1999.90;999.90;;;;;;;20.87;65.89;95174.56;5131949;27;20190;-65
2021/07/05 05:31:31;;;;;;;1999.90;999.90;;;;;;;20.73;67.85;95184.25;5132164;27;20202;-65
2021/07/05 05:33:58;;;;;;;1999.90;999.90;;;;;;;20.65;68.65;95178.16;5131800;27;20222;-63
2021/07/05 05:36:25;;;;;;;1999.90;999.90;;;;;;;20.73;67.93;95184.25;5131625;27;20765;-64
2021/07/05 05:38:52;;;;;;;1999.90;999.90;;;;;;;20.97;67.69;95175.78;5131484;27;20226;-62
2021/07/05 05:41:21;;;;;;;1999.90;999.90;;;;;;;20.89;69.00;95168.91;5132017;27;20203;-64
2021/07/05 05:43:48;;;;;;;1999.90;999.90;;;;;;;20.67;69.09;95170.66;5131537;27;20777;-64
2021/07/05 05:46:16;;;;;;;1999.90;999.90;;;;;;;20.23;69.92;95170.59;5131743;27;20603;-64
2021/07/05 05:48:43;;;;;;;1999.90;999.90;;;;;;;20.05;70.90;95170.41;5131363;27;20226;-64
2021/07/05 05:51:11;;;;;;;1999.90;999.90;;;;;;;19.91;72.22;95172.16;5131722;27;20194;-64
2021/07/05 05:53:38;;;;;;;1999.90;999.90;;;;;;;20.02;71.93;95171.16;5131454;27;20285;-64
2021/07/05 05:56:06;;;;;;;1999.90;999.90;;;;;;;20.20;72.86;95168.69;5131278;27;20247;-64
2021/07/05 05:58:38;;;;;;;1999.90;999.90;;;;;;;20.16;74.12;95163.38;5131130;27;20218;-64
2021/07/05 06:01:06;;;;;;;1999.90;999.90;;;;;;;20.37;71.38;95167.38;5131295;27;20567;-65
2021/07/05 06:03:33;;;;;;;1999.90;999.90;;;;;;;20.57;70.09;95166.78;5131069;27;20233;-64
2021/07/05 06:06:00;;;;;;;1999.90;999.90;;;;;;;21.09;68.71;95169.44;5131215;27;20730;-64
2021/07/05 06:08:27;;;;;;;1999.90;999.90;;;;;;;21.20;67.17;95159.72;5131132;27;20582;-64
2021/07/05 06:10:55;;;;;;;1999.90;999.90;;;;;;;21.56;67.23;95155.38;5131055;27;20209;-64
2021/07/05 06:13:22;;;;;;;1999.90;999.90;;;;;;;21.74;65.88;95153.56;5130907;27;20194;-65
2021/07/05 06:15:50;;;;;;;1999.90;999.90;;;;;;;21.92;65.79;95147.19;5131408;27;20255;-65
2021/07/05 06:18:17;;;;;;;1999.90;999.90;;;;;;;22.25;63.10;95138.22;5130936;27;20226;-65
2021/07/05 06:20:44;;;;;;;1999.90;999.90;;;;;;;22.66;60.32;95146.59;5131222;27;20585;-64
2021/07/05 06:23:19;;;;;;;1999.90;999.90;;;;;;;22.62;61.37;95142.41;5130579;27;20190;-64
2021/07/05 06:25:46;;;;;;;1999.90;999.90;;;;;;;22.93;59.98;95148.84;5131084;27;20189;-64
2021/07/05 06:28:14;;;;;;;1999.90;999.90;;;;;;;22.95;60.16;95152.66;5130623;27;20199;-64
2021/07/05 06:30:41;;;;;;;1999.90;999.90;;;;;;;23.04;58.54;95154.91;5131125;27;20663;-64
2021/07/05 06:33:09;;;;;;;1999.90;999.90;;;;;;;23.34;58.80;95149.16;5130991;27;20642;-64
2021/07/05 06:35:37;;;;;;;1999.90;999.90;;;;;;;23.74;60.24;95148.69;5130873;27;20255;-65
2021/07/05 06:38:04;;;;;;;1999.90;999.90;;;;;;;23.97;57.88;95146.28;5130423;27;20198;-64
2021/07/05 06:40:31;;;;;;;1999.90;999.90;;;;;;;24.03;57.56;95142.09;5130826;27;20202;-64
2021/07/05 06:42:58;;;;;;;1999.90;999.90;;;;;;;23.89;56.45;95139.50;5130872;27;20201;-64
2021/07/05 06:45:26;;;;;;;1999.90;999.90;;;;;;;23.93;57.00;95140.25;5130755;27;20285;-64
2021/07/05 06:47:53;;;;;;;1999.90;999.90;;;;;;;23.48;57.91;95125.28;5133354;27;20248;-64
2021/07/05 06:50:22;;;;;;;1999.90;999.90;;;;;;;23.33;58.43;95124.53;5130442;27;20621;-65
2021/07/05 06:52:49;;;;;;;1999.90;999.90;;;;;;;23.39;59.73;95120.34;5130099;27;20202;-65
2021/07/05 06:55:16;;;;;;;1999.90;999.90;;;;;;;23.36;59.95;95113.16;5130537;27;20198;-64
2021/07/05 06:57:44;;;;;;;1999.90;999.90;;;;;;;23.44;59.35;95105.94;5130021;27;20255;-64
2021/07/05 07:00:13;;;;;;;1999.90;999.90;;;;;;;23.65;58.26;95116.50;5130113;27;20702;-64
2021/07/05 07:02:40;;;;;;;1999.90;999.90;;;;;;;23.49;58.17;95113.53;5129863;27;20778;-65
2021/07/05 07:05:10;;;;;;;1999.90;999.90;;;;;;;23.67;55.85;95116.09;5130161;27;20657;-65
2021/07/05 07:07:39;;;;;;;1999.90;999.90;;;;;;;23.73;55.86;95120.63;5130415;27;20226;-64
2021/07/05 07:10:08;;;;;;;1999.90;999.90;;;;;;;23.81;56.02;95119.44;5130266;27;20307;-64
2021/07/05 07:12:35;;;;;;;1999.90;999.90;;;;;;;24.00;55.34;95108.34;5130125;27;20234;-64
2021/07/05 07:15:03;;;;;;;1999.90;999.90;;;;;;;24.17;55.59;95114.72;5129891;27;20911;-64
2021/07/05 07:17:33;;;;;;;1999.90;999.90;;;;;;;24.20;55.97;95107.88;5130415;27;20198;-73
2021/07/05 07:20:00;;;;;;;1999.90;999.90;;;;;;;23.88;58.23;95108.78;5130271;27;20313;-72
2021/07/05 07:22:28;;;;;;;1999.90;999.90;;;;;;;24.20;56.58;95105.22;5130207;27;20217;-69
2021/07/05 07:24:56;;;;;;;1999.90;999.90;;;;;;;24.56;54.87;95111.78;5130181;27;20199;-70
2021/07/05 07:27:23;;;;;;;1999.90;999.90;;;;;;;24.73;53.19;95116.19;5129729;27;20254;-66
2021/07/05 07:29:50;;;;;;;1999.90;999.90;;;;;;;24.94;52.00;95119.84;5130050;27;20205;-66
2021/07/05 07:32:17;;;;;;;1999.90;999.90;;;;;;;24.78;52.52;95107.03;5129714;27;20214;-66
2021/07/05 07:34:45;;;;;;;1999.90;999.90;;;;;;;24.88;51.30;95110.78;5130704;27;20217;-66
2021/07/05 07:37:13;;;;;;;1999.90;999.90;;;;;;;24.71;53.02;95107.09;5134025;27;20190;-67
2021/07/05 07:39:41;;;;;;;1999.90;999.90;;;;;;;24.83;52.72;95101.28;5133918;27;20221;-66
2021/07/05 07:42:10;;;;;;;1999.90;999.90;;;;;;;25.01;52.59;95101.13;5133963;27;20205;-66
2021/07/05 07:44:37;;;;;;;1999.90;999.90;;;;;;;25.00;51.87;95100.41;5134113;27;20194;-67
2021/07/05 07:47:05;;;;;;;1999.90;999.90;;;;;;;25.04;52.89;95097.72;5133835;27;20206;-67
2021/07/05 07:49:33;;;;;;;1999.90;999.90;;;;;;;25.14;51.12;95107.47;5133859;27;20623;-67
2021/07/05 07:52:01;;;;;;;1999.90;999.90;;;;;;;25.07;51.30;95107.53;5133687;27;20198;-66
2021/07/05 07:54:28;;;;;;;1999.90;999.90;;;;;;;25.25;53.77;95102.81;5134083;27;20229;-66
2021/07/05 07:56:56;;;;;;;1999.90;999.90;;;;;;;25.51;51.72;95096.78;5133914;27;20674;-67
2021/07/05 07:59:24;;;;;;;1999.90;999.90;;;;;;;26.10;51.25;95091.13;5134182;27;20226;-67
2021/07/05 08:01:51;;;;;;;1999.90;999.90;;;;;;;26.30;51.14;95083.97;5134443;27;20251;-68
2021/07/05 08:04:18;;;;;;;1999.90;999.90;;;;;;;26.59;47.51;95089.63;5133652;27;20234;-67
2021/07/05 08:06:46;;;;;;;1999.90;999.90;;;;;;;26.41;47.83;95084.56;5134071;27;20202;-68
2021/07/05 08:09:13;;;;;;;1999.90;999.90;;;;;;;26.74;47.69;95079.47;5133423;27;20258;-68
2021/07/05 08:11:40;;;;;;;1999.90;999.90;;;;;;;26.68;47.29;95083.75;5133559;27;20198;-68
2021/07/05 08:14:08;;;;;;;1999.90;999.90;;;;;;;26.77;47.90;95087.41;5133652;27;20198;-68
2021/07/05 08:16:37;;;;;;;1999.90;999.90;;;;;;;26.63;49.29;95069.00;5133592;27;20198;-68
2021/07/05 08:19:04;;;;;;;1999.90;999.90;;;;;;;26.38;49.98;95077.41;5133181;27;20233;-69
2021/07/05 08:21:36;;;;;;;1999.90;999.90;;;;;;;26.50;49.33;95071.47;5133452;27;20195;-68
2021/07/05 08:24:03;;;;;;;1999.90;999.90;;;;;;;26.69;47.88;95069.28;5133260;27;20243;-67
2021/07/05 08:26:30;;;;;;;1999.90;999.90;;;;;;;26.68;47.96;95065.09;5133296;27;20255;-65
2021/07/05 08:28:58;;;;;;;1999.90;999.90;;;;;;;26.49;49.04;95053.25;5133345;27;20224;-66
2021/07/05 08:31:25;;;;;;;1999.90;999.90;;;;;;;26.87;50.01;95056.41;5133332;27;20198;-66
2021/07/05 08:33:54;;;;;;;1999.90;999.90;;;;;;;27.23;50.95;95051.91;5133436;27;20202;-66
2021/07/05 08:36:21;;;;;;;1999.90;999.90;;;;;;;27.65;48.11;95054.91;5132946;27;20759;-66
2021/07/05 08:38:49;;;;;;;1999.90;999.90;;;;;;;27.80;50.12;95053.44;5132796;27;20225;-65
2021/07/05 08:41:16;;;;;;;1999.90;999.90;;;;;;;27.90;46.20;95060.47;5133036;27;20202;-65
2021/07/05 08:43:45;;;;;;;1999.90;999.90;;;;;;;27.73;48.10;95053.59;5143298;27;20198;-65
2021/07/05 08:46:14;;;;;;;1999.90;999.90;;;;;;;28.03;46.93;95045.31;5153746;27;20254;-65
2021/07/05 08:48:42;;;;;;;1999.90;999.90;;;;;;;28.05;46.59;95045.63;5153583;27;20198;-66
2021/07/05 08:51:14;;;;;;;1999.90;999.90;;;;;;;28.03;47.88;95044.53;5153786;27;20194;-65
2021/07/05 08:53:42;;;;;;;1999.90;999.90;;;;;;;28.01;47.97;95041.53;5142271;27;20195;-66
2021/07/05 08:56:11;;;;;;;1999.90;999.90;;;;;;;28.01;46.09;95044.19;5132577;27;20227;-65
2021/07/05 08:58:39;;;;;;;1999.90;999.90;;;;;;;28.29;46.83;95046.25;5132697;27;20194;-65
2021/07/05 09:01:09;;;;;;;1999.90;999.90;;;;;;;28.07;44.00;95045.97;5132763;27;20209;-65
2021/07/05 09:03:38;;;;;;;1999.90;999.90;;;;;;;28.36;44.84;95042.66;5132130;27;20793;-65
2021/07/05 09:06:11;;;;;;;1999.90;999.90;;;;;;;28.64;43.33;95041.97;5132552;27;20670;-65
2021/07/05 09:08:39;;;;;;;1999.90;999.90;;;;;;;28.81;41.65;95040.00;5132700;27;20256;-65
2021/07/05 09:11:08;;;;;;;1999.90;999.90;;;;;;;29.32;42.26;95040.97;5132685;27;20297;-65
2021/07/05 09:13:47;;;;;;;1999.90;999.90;;;;;;;29.64;41.75;95035.44;5132517;27;20578;-66
2021/07/05 09:16:27;;;;;;;1999.90;999.90;;;;;;;29.49;41.21;95037.03;5132610;27;20190;-65
2021/07/05 09:18:55;;;;;;;1999.90;999.90;;;;;;;29.02;43.24;95045.56;5132123;27;20189;-65
2021/07/05 09:21:25;;;;;;;1999.90;999.90;;;;;;;28.47;43.72;95038.56;5132075;27;20203;-66
2021/07/05 09:23:57;;;;;;;1999.90;999.90;;;;;;;28.93;40.75;95045.44;5132197;27;20190;-65
2021/07/05 09:26:28;;;;;;;1999.90;999.90;;;;;;;28.87;40.62;95038.34;5132464;27;20214;-66
2021/07/05 09:28:55;;;;;;;1999.90;999.90;;;;;;;28.86;40.84;95031.47;5132159;27;20651;-66
2021/07/05 09:31:43;;;;;;;1999.90;999.90;;;;;;;28.86;40.63;95026.88;5132055;27;20251;-65
2021/07/05 09:34:19;;;;;;;1999.90;999.90;;;;;;;29.22;42.00;95020.56;5132147;27;20178;-65
2021/07/05 09:36:49;;;;;;;1999.90;999.90;;;;;;;29.62;41.67;95021.72;5132380;27;20187;-65
2021/07/05 09:39:19;;;;;;;1999.90;999.90;;;;;;;29.77;41.26;95017.47;5131780;27;20267;-65
2021/07/05 09:41:47;;;;;;;1999.90;999.90;;;;;;;29.73;40.43;95006.09;5131652;27;20247;-66
2021/07/05 09:44:17;;;;;;;1999.90;999.90;;;;;;;29.46;40.96;95006.50;5131587;27;20202;-65
2021/07/05 09:46:47;;;;;;;1999.90;999.90;;;;;;;29.14;40.96;95003.22;5131510;27;20195;-65
2021/07/05 09:49:19;;;;;;;1999.90;999.90;;;;;;;29.11;41.74;95010.16;5131700;27;20182;-65
2021/07/05 09:52:04;;;;;;;1999.90;999.90;;;;;;;28.86;41.83;95010.06;5131771;27;20187;-65
2021/07/05 09:54:33;;;;;;;1999.90;999.90;;;;;;;29.12;41.27;95002.88;5131520;27;20692;-66
2021/07/05 09:57:01;;;;;;;1999.90;999.90;;;;;;;29.06;42.98;94992.69;5131578;27;20194;-66
2021/07/05 09:59:29;;;;;;;1999.90;999.90;;;;;;;28.41;43.48;95000.13;5130919;27;20226;-66
2021/07/05 10:01:58;;;;;;;1999.90;999.90;;;;;;;28.46;45.74;94991.59;5131215;27;20589;-66
2021/07/05 10:04:27;;;;;;;1999.90;999.90;;;;;;;28.33;45.58;94996.13;5131114;27;20241;-66
2021/07/05 10:06:57;;;;;;;1999.90;999.90;;;;;;;28.45;46.22;94989.31;5131644;27;20206;-65
2021/07/05 10:09:36;;;;;;;1999.90;999.90;;;;;;;29.01;44.21;94987.88;5131165;27;20623;-66
2021/07/05 10:12:25;;;;;;;1999.90;999.90;;;;;;;29.91;41.21;94982.22;5131477;27;20236;-66
2021/07/05 10:14:57;;;;;;;1999.90;999.90;;;;;;;30.11;39.83;94976.59;5127046;27;20682;-66
2021/07/05 10:17:27;;;;;;;1999.90;999.90;;;;;;;30.50;40.15;94975.34;5131333;27;20195;-66
2021/07/05 10:19:55;;;;;;;1999.90;999.90;;;;;;;30.65;39.05;94976.34;5130757;27;20226;-65
2021/07/05 10:22:23;;;;;;;1999.90;999.90;;;;;;;30.41;41.77;94972.56;5131197;27;20198;-66
2021/07/05 10:24:52;;;;;;;1999.90;999.90;;;;;;;30.69;38.96;94968.94;5131373;27;20199;-66
2021/07/05 10:27:19;;;;;;;1999.90;999.90;;;;;;;30.30;40.14;94967.53;5131166;27;20597;-66
2021/07/05 10:29:48;;;;;;;1999.90;999.90;;;;;;;30.17;40.76;94971.44;5131009;27;20191;-66
2021/07/05 10:32:17;;;;;;;1999.90;999.90;;;;;;;30.54;39.96;94965.25;5130776;27;20205;-65
2021/07/05 10:34:45;;;;;;;1999.90;999.90;;;;;;;30.76;38.31;94965.25;5130836;27;20647;-67
2021/07/05 10:37:19;;;;;;;1999.90;999.90;;;;;;;30.59;40.02;94961.25;5130564;27;20194;-66
2021/07/05 10:39:51;;;;;;;1999.90;999.90;;;;;;;30.35;38.37;94958.94;5130716;27;20202;-67
2021/07/05 10:42:30;;;;;;;1999.90;999.90;;;;;;;30.26;38.19;94956.19;5130776;27;20663;-67
2021/07/05 10:44:57;;;;;;;1999.90;999.90;;;;;;;30.79;39.53;94965.13;5130683;27;20580;-65
2021/07/05 10:47:49;;;;;;;1999.90;999.90;;;;;;;31.23;36.57;94954.41;5132978;27;20707;-65
2021/07/05 10:50:46;;;;;;;1999.90;999.90;;;;;;;31.25;37.56;94952.00;5127271;27;20191;-66
2021/07/05 10:53:17;;;;;;;1999.90;999.90;;;;;;;31.40;37.50;94958.34;5130712;27;20266;-65
2021/07/05 10:55:47;;;;;;;1999.90;999.90;;;;;;;31.15;36.22;94967.34;5130526;27;20187;-66
2021/07/05 10:58:20;;;;;;;1999.90;999.90;;;;;;;31.13;35.78;94952.84;5130766;27;20244;-65
2021/07/05 11:00:48;;;;;;;1999.90;999.90;;;;;;;31.40;37.31;94952.97;5130142;27;20678;-66